Time;durP1;ratioP1;P1;durP2;ratioP2;P2;SDS_P1;SDS_P2;PMS_P1;PMS_P2;Temp;Humidity;BMP_temperature;BMP_pressure;BME280_temperature;BME280_humidity;BME280_pressure;Samples;Min_cycle;Max_cycle;Signal;HPM_P1;HPM_P2
2023/08/24 00:01:13;;;;;;;26.80;11.27;;;;;;;23.83;100.00;92895.44;5038954;28;20033;-78
2023/08/24 00:03:39;;;;;;;23.17;11.15;;;;;;;23.93;100.00;92904.72;5051715;28;20021;-78
2023/08/24 00:06:06;;;;;;;20.17;11.93;;;;;;;24.01;100.00;92922.44;5051237;28;20056;-79
2023/08/24 00:08:35;;;;;;;22.88;11.10;;;;;;;23.80;100.00;92896.94;5032998;28;20040;-79
2023/08/24 00:11:00;;;;;;;20.10;11.00;;;;;;;23.96;100.00;92917.38;5033160;28;20046;-80
2023/08/24 00:13:26;;;;;;;21.60;11.10;;;;;;;23.78;100.00;92893.84;5016778;28;20131;-79
2023/08/24 00:15:54;;;;;;;21.48;10.10;;;;;;;23.80;100.00;92907.63;5033757;28;20124;-78
2023/08/24 00:18:21;;;;;;;17.63;7.85;;;;;;;23.72;100.00;92895.22;5050515;28;20057;-79
2023/08/24 00:20:48;;;;;;;22.35;8.88;;;;;;;23.59;100.00;92875.16;5050990;28;20044;-78
2023/08/24 00:23:16;;;;;;;23.35;8.27;;;;;;;23.63;100.00;92894.72;5034112;28;20030;-79
2023/08/24 00:25:42;;;;;;;23.60;7.90;;;;;;;23.50;100.00;92880.75;5015719;28;20052;-80
2023/08/24 00:28:10;;;;;;;30.67;7.65;;;;;;;23.56;98.62;92894.59;5032418;28;20034;-79
2023/08/24 00:30:40;;;;;;;22.95;7.53;;;;;;;23.57;96.90;92904.91;5050194;28;20033;-82
2023/08/24 00:33:06;;;;;;;30.92;8.27;;;;;;;23.61;94.98;92921.00;5031904;28;20054;-80
2023/08/24 00:35:31;;;;;;;26.38;7.45;;;;;;;23.55;95.12;92917.09;5016139;28;20442;-80
2023/08/24 00:38:02;;;;;;;19.25;7.95;;;;;;;23.49;93.36;92917.41;5050730;28;20044;-80
2023/08/24 00:40:34;;;;;;;18.45;7.63;;;;;;;23.45;95.10;92923.81;5032607;28;20041;-80
2023/08/24 00:43:00;;;;;;;22.08;7.25;;;;;;;23.33;94.50;92911.41;5033698;28;20101;-79
2023/08/24 00:45:30;;;;;;;18.88;7.80;;;;;;;23.35;95.21;92919.84;5032623;28;20033;-80
2023/08/24 00:47:56;;;;;;;21.75;8.20;;;;;;;23.31;96.05;92923.56;5050192;28;20060;-80
2023/08/24 00:50:38;;;;;;;23.48;7.65;;;;;;;23.23;97.19;92911.97;5033612;28;20033;-79
2023/08/24 00:53:15;;;;;;;;;;;;;;;23.31;98.02;92920.91;5051248;28;20404;-79
2023/08/24 00:55:40;;;;;;;27.80;8.38;;;;;;;23.11;97.83;92896.91;5050186;28;19913;-80
2023/08/24 00:58:09;;;;;;;26.40;8.98;;;;;;;23.21;99.46;92914.22;5015877;28;20040;-79
2023/08/24 01:00:58;;;;;;;19.58;8.85;;;;;;;23.21;100.00;92919.56;5050768;28;20037;-80
2023/08/24 01:03:28;;;;;;;22.35;8.55;;;;;;;23.10;100.00;92906.00;5033792;28;20045;-80
2023/08/24 01:05:54;;;;;;;25.55;9.00;;;;;;;23.00;100.00;92899.38;5050881;28;20033;-80
2023/08/24 01:08:23;;;;;;;33.97;9.10;;;;;;;23.00;100.00;92899.38;5016782;28;20089;-80
2023/08/24 01:11:14;;;;;;;22.40;9.50;;;;;;;23.09;100.00;92912.50;5037855;28;20037;-80
2023/08/24 01:13:51;;;;;;;28.42;10.10;;;;;;;23.06;100.00;92910.53;5051492;28;20510;-80
2023/08/24 01:16:20;;;;;;;21.98;9.52;;;;;;;23.05;100.00;92896.41;5034389;28;20033;-79
2023/08/24 01:18:51;;;;;;;20.02;10.25;;;;;;;23.05;100.00;92899.06;5051278;28;20060;-80
2023/08/24 01:21:18;;;;;;;21.13;9.67;;;;;;;23.07;100.00;92898.72;5029939;28;20129;-80
2023/08/24 01:24:27;;;;;;;21.27;9.68;;;;;;;23.06;100.00;92903.28;5013646;28;20032;-80
2023/08/24 01:26:55;;;;;;;21.48;10.18;;;;;;;23.02;100.00;92899.03;5043638;28;20026;-80
2023/08/24 01:29:21;;;;;;;20.42;10.70;;;;;;;23.03;100.00;92896.00;5033860;28;20026;-79
2023/08/24 01:31:49;;;;;;;20.83;10.23;;;;;;;22.98;100.00;92896.25;5050202;28;20037;-79
2023/08/24 01:34:15;;;;;;;22.65;11.48;;;;;;;22.99;100.00;92899.69;5050966;28;20037;-80
2023/08/24 01:36:40;;;;;;;18.60;10.82;;;;;;;22.96;100.00;92893.16;5049690;28;20170;-79
2023/08/24 01:39:28;;;;;;;25.58;10.40;;;;;;;22.97;100.00;92893.94;5050391;28;20031;-79
2023/08/24 01:41:59;;;;;;;17.85;9.90;;;;;;;22.93;100.00;92888.53;5031094;28;20040;-80
2023/08/24 01:44:29;;;;;;;23.45;9.93;;;;;;;22.99;100.00;92894.34;5029106;28;20049;-80
2023/08/24 01:46:57;;;;;;;22.27;10.40;;;;;;;23.00;100.00;92894.03;5039525;28;20033;-80
2023/08/24 01:49:26;;;;;;;24.88;10.52;;;;;;;22.98;100.00;92884.81;5032828;28;20034;-79
2023/08/24 01:52:01;;;;;;;19.95;10.77;;;;;;;22.94;100.00;92884.72;5032910;28;20051;-80
2023/08/24 01:54:26;;;;;;;26.08;10.70;;;;;;;22.91;100.00;92885.44;5032926;28;20025;-80
2023/08/24 01:56:55;;;;;;;21.08;9.30;;;;;;;22.88;100.00;92886.16;5050046;28;20022;-80
2023/08/24 01:59:21;;;;;;;22.48;10.95;;;;;;;22.84;100.00;92888.75;5032619;28;20411;-82
2023/08/24 02:01:46;;;;;;;28.15;10.05;;;;;;;22.82;100.00;92892.91;5031504;28;20041;-80
2023/08/24 02:04:12;;;;;;;25.55;10.55;;;;;;;22.75;100.00;92884.75;5050010;28;20071;-79
2023/08/24 02:06:43;;;;;;;21.95;9.23;;;;;;;22.79;100.00;92893.63;5029127;28;20030;-80
2023/08/24 02:09:08;;;;;;;21.73;9.25;;;;;;;22.79;100.00;92901.63;5020006;28;20125;-80
2023/08/24 02:11:34;;;;;;;24.50;10.10;;;;;;;22.76;100.00;92894.31;5013243;28;20041;-80
2023/08/24 02:14:03;;;;;;;25.02;9.82;;;;;;;22.73;100.00;92892.34;5013805;28;20036;-79
2023/08/24 02:16:28;;;;;;;22.60;9.63;;;;;;;22.70;100.00;92885.81;5019549;28;20033;-80
2023/08/24 02:18:56;;;;;;;24.15;9.90;;;;;;;22.70;100.00;92885.03;5032430;28;20052;-79
2023/08/24 02:21:23;;;;;;;27.67;9.32;;;;;;;22.68;100.00;92887.31;5033469;28;20029;-80
2023/08/24 02:23:49;;;;;;;24.30;10.20;;;;;;;22.68;100.00;92888.06;5049156;28;20037;-80
2023/08/24 02:26:28;;;;;;;22.38;9.35;;;;;;;22.66;100.00;92885.75;5049037;28;20029;-80
2023/08/24 02:28:54;;;;;;;22.13;9.55;;;;;;;22.65;100.00;92881.53;5049321;28;20041;-80
2023/08/24 02:31:38;;;;;;;20.88;9.85;;;;;;;22.66;100.00;92885.75;5015967;28;20034;-79
2023/08/24 02:34:05;;;;;;;20.45;9.30;;;;;;;22.68;100.00;92889.97;5032591;28;20103;-80
2023/08/24 02:36:38;;;;;;;21.33;9.63;;;;;;;22.70;100.00;92888.50;5049488;28;20116;-80
2023/08/24 02:39:08;;;;;;;26.60;9.55;;;;;;;22.67;100.00;92881.16;5048208;28;20037;-80
2023/08/24 02:41:34;;;;;;;18.38;9.50;;;;;;;22.72;100.00;92877.44;5049633;28;20048;-80
2023/08/24 02:44:01;;;;;;;27.90;9.93;;;;;;;22.71;100.00;92882.00;5049793;28;20049;-80
2023/08/24 02:46:27;;;;;;;21.77;9.60;;;;;;;22.73;100.00;92881.66;5032039;28;20100;-80
2023/08/24 02:48:53;;;;;;;23.58;10.07;;;;;;;22.71;100.00;92881.25;5032394;28;20040;-80
2023/08/24 02:51:22;;;;;;;21.13;9.30;;;;;;;22.69;100.00;92878.16;5048877;28;20152;-80
2023/08/24 02:53:47;;;;;;;26.10;9.60;;;;;;;22.71;100.00;92882.00;5038430;28;20028;-80
2023/08/24 02:56:13;;;;;;;21.92;9.70;;;;;;;22.65;100.00;92886.88;5071489;28;20037;-80
2023/08/24 02:58:39;;;;;;;30.40;9.48;;;;;;;22.60;100.00;92881.03;5055813;28;20032;-80
2023/08/24 03:01:08;;;;;;;20.20;9.07;;;;;;;22.53;100.00;92873.66;5037007;28;20052;-80
2023/08/24 03:03:36;;;;;;;26.33;8.90;;;;;;;22.51;100.00;92883.91;5016414;28;20037;-79
2023/08/24 03:06:11;;;;;;;22.48;9.70;;;;;;;22.47;100.00;92876.97;4999712;28;20069;-79
2023/08/24 03:08:37;;;;;;;22.98;9.27;;;;;;;22.43;100.00;92877.66;5035964;28;20057;-80
2023/08/24 03:11:19;;;;;;;25.50;9.63;;;;;;;22.44;100.00;92878.44;5034298;28;20029;-80
2023/08/24 03:14:22;;;;;;;23.50;9.40;;;;;;;22.42;100.00;92872.69;5000852;28;20042;-80
2023/08/24 03:16:48;;;;;;;28.80;10.10;;;;;;;22.39;100.00;92876.06;5022270;28;20037;-80
2023/08/24 03:19:19;;;;;;;23.73;9.27;;;;;;;22.35;100.00;92869.88;5036087;28;20033;-80
2023/08/24 03:21:44;;;;;;;19.75;10.25;;;;;;;22.27;100.00;92863.63;5031411;28;20057;-80
2023/08/24 03:24:10;;;;;;;21.48;10.15;;;;;;;22.31;100.00;92874.34;5031895;28;20418;-80
2023/08/24 03:26:39;;;;;;;24.38;9.68;;;;;;;22.29;100.00;92873.94;5034802;28;20116;-80
2023/08/24 03:29:13;;;;;;;17.60;9.85;;;;;;;22.21;100.00;92867.66;5034574;28;20044;-80
2023/08/24 03:31:39;;;;;;;22.90;9.68;;;;;;;22.23;100.00;92871.53;5031856;28;20042;-80
2023/08/24 03:34:04;;;;;;;18.98;9.95;;;;;;;22.16;100.00;92866.03;5035637;28;20048;-79
2023/08/24 03:36:30;;;;;;;28.30;9.18;;;;;;;22.16;100.00;92866.03;5051749;28;20037;-80
2023/08/24 03:38:56;;;;;;;21.67;9.38;;;;;;;22.15;100.00;92867.16;5034910;28;20052;-80
2023/08/24 03:41:22;;;;;;;21.75;8.90;;;;;;;22.09;100.00;92865.09;5034531;28;20394;-80
2023/08/24 03:43:48;;;;;;;27.25;8.70;;;;;;;22.07;100.00;92870.03;5018278;28;20033;-80
2023/08/24 03:46:14;;;;;;;22.23;9.18;;;;;;;22.06;100.00;92871.13;5052026;28;20093;-80
2023/08/24 03:48:42;;;;;;;32.40;8.88;;;;;;;22.04;100.00;92876.81;5002544;28;20024;-80
2023/08/24 03:51:08;;;;;;;26.52;8.93;;;;;;;22.02;100.00;92876.38;5051495;28;20065;-80
2023/08/24 03:53:42;;;;;;;24.05;8.68;;;;;;;22.02;100.00;92876.38;5033353;28;20025;-80
2023/08/24 03:56:09;;;;;;;23.98;8.50;;;;;;;21.99;100.00;92880.53;5051575;28;20048;-79
2023/08/24 03:58:35;;;;;;;28.38;9.82;;;;;;;22.00;100.00;92870.66;5051547;28;20452;-80
2023/08/24 04:01:06;;;;;;;23.48;8.48;;;;;;;21.99;100.00;92879.75;5034435;28;20041;-80
2023/08/24 04:03:33;;;;;;;25.60;8.60;;;;;;;21.98;100.00;92870.22;5019116;28;20113;-80
2023/08/24 04:05:58;;;;;;;21.88;8.52;;;;;;;21.97;100.00;92871.34;5050884;28;20057;-79
2023/08/24 04:08:24;;;;;;;19.85;7.95;;;;;;;21.94;100.00;92882.69;5051872;28;20045;-80
2023/08/24 04:10:50;;;;;;;29.55;8.40;;;;;;;21.90;100.00;92877.28;5034459;28;20030;-80
2023/08/24 04:13:16;;;;;;;19.48;7.07;;;;;;;21.87;100.00;92885.22;5014067;28;20037;-80
2023/08/24 04:15:42;;;;;;;24.30;7.95;;;;;;;21.87;100.00;92887.88;5029336;28;20025;-80
2023/08/24 04:18:08;;;;;;;29.58;9.50;;;;;;;21.89;100.00;92896.28;5026981;28;20053;-80
2023/08/24 04:20:35;;;;;;;32.22;10.70;;;;;;;21.88;100.00;92903.50;5030273;28;20041;-79
2023/08/24 04:23:07;;;;;;;29.80;9.10;;;;;;;21.87;100.00;92901.19;5032067;28;20109;-80
2023/08/24 04:25:39;;;;;;;27.65;7.72;;;;;;;21.84;100.00;92894.63;5030394;28;20041;-79
2023/08/24 04:28:05;;;;;;;20.38;7.35;;;;;;;21.87;100.00;92899.28;5045829;28;20045;-80
2023/08/24 04:30:32;;;;;;;18.38;7.22;;;;;;;21.87;100.00;92899.28;5031163;28;20026;-80
2023/08/24 04:32:59;;;;;;;21.98;7.93;;;;;;;21.87;100.00;92901.19;5012974;28;20489;-79
2023/08/24 04:35:26;;;;;;;24.48;8.73;;;;;;;21.87;100.00;92903.84;5010537;28;20373;-78
2023/08/24 04:37:51;;;;;;;19.65;7.45;;;;;;;21.85;100.00;92908.75;5014428;28;20033;-79
2023/08/24 04:40:17;;;;;;;25.05;7.57;;;;;;;21.82;100.00;92919.00;5007693;28;20030;-79
2023/08/24 04:42:42;;;;;;;20.75;8.73;;;;;;;21.81;100.00;92912.09;5015048;28;20050;-79
2023/08/24 04:45:08;;;;;;;25.15;9.07;;;;;;;21.82;100.00;92919.00;5007740;28;20026;-79
2023/08/24 04:47:35;;;;;;;23.65;7.93;;;;;;;21.84;100.00;92921.28;5014912;28;20042;-79
2023/08/24 04:50:00;;;;;;;21.77;8.23;;;;;;;21.85;100.00;92912.19;5013087;28;20040;-79
2023/08/24 04:52:26;;;;;;;25.67;8.68;;;;;;;21.89;100.00;92914.94;5015328;28;20069;-79
2023/08/24 04:54:51;;;;;;;27.90;8.20;;;;;;;21.91;100.00;92913.47;4998844;28;20037;-79
2023/08/24 04:57:17;;;;;;;22.65;7.97;;;;;;;21.95;100.00;92917.00;5004506;28;20120;-79
2023/08/24 04:59:44;;;;;;;21.95;8.63;;;;;;;21.97;100.00;92916.63;5009434;28;20455;-78
2023/08/24 05:02:09;;;;;;;22.95;9.95;;;;;;;21.99;100.00;92917.06;5009541;28;20092;-79
2023/08/24 05:04:35;;;;;;;19.80;9.40;;;;;;;22.02;100.00;92916.38;5004848;28;20464;-79
2023/08/24 05:07:00;;;;;;;21.30;10.52;;;;;;;22.05;100.00;92915.69;5009159;28;20586;-79
2023/08/24 05:09:26;;;;;;;33.90;10.65;;;;;;;22.10;100.00;92918.06;5004724;28;20030;-78
2023/08/24 05:11:52;;;;;;;20.45;10.40;;;;;;;22.15;100.00;92920.47;5013254;28;20042;-79
2023/08/24 05:14:17;;;;;;;22.55;10.80;;;;;;;22.19;100.00;92920.56;5014322;28;20029;-79
2023/08/24 05:16:43;;;;;;;33.83;12.20;;;;;;;22.25;100.00;92924.53;5014718;28;20065;-79
2023/08/24 05:19:08;;;;;;;24.25;11.15;;;;;;;22.32;100.00;92921.25;5031955;28;20042;-79
2023/08/24 05:21:34;;;;;;;25.30;11.70;;;;;;;22.36;100.00;92922.88;5025838;28;20103;-79
2023/08/24 05:23:59;;;;;;;21.58;11.73;;;;;;;22.42;100.00;92912.69;5011819;28;20053;-79
2023/08/24 05:26:25;;;;;;;21.17;10.63;;;;;;;22.49;100.00;92920.81;5033824;28;20090;-78
2023/08/24 05:28:52;;;;;;;19.58;10.27;;;;;;;22.56;100.00;92912.19;5016559;28;20040;-78
2023/08/24 05:31:18;;;;;;;24.73;10.68;;;;;;;22.65;100.00;92916.22;5015808;28;20060;-78
2023/08/24 05:33:44;;;;;;;26.83;10.57;;;;;;;22.76;100.00;92920.97;5034124;28;20025;-78
2023/08/24 05:36:10;;;;;;;21.65;10.77;;;;;;;22.82;100.00;92908.91;5016005;28;20037;-79
2023/08/24 05:38:36;;;;;;;26.52;11.07;;;;;;;22.95;100.00;92910.31;5026309;28;20083;-81
2023/08/24 05:41:01;;;;;;;22.48;10.73;;;;;;;23.08;100.00;92918.97;5027671;28;20045;-80
2023/08/24 05:43:27;;;;;;;25.20;10.85;;;;;;;23.20;100.00;92915.38;5029827;28;20026;-80
2023/08/24 05:45:52;;;;;;;25.80;11.57;;;;;;;23.33;100.00;92921.28;5011624;28;20034;-80
2023/08/24 05:48:18;;;;;;;23.10;11.50;;;;;;;23.46;100.00;92915.44;5027312;28;20029;-81
2023/08/24 05:50:48;;;;;;;26.50;11.68;;;;;;;23.59;100.00;92917.91;5011658;28;20058;-81
2023/08/24 05:53:13;;;;;;;21.80;11.95;;;;;;;23.76;100.00;92928.16;5029517;28;20125;-80
2023/08/24 05:55:39;;;;;;;20.35;10.43;;;;;;;23.90;100.00;92923.03;5028736;28;20034;-81
2023/08/24 05:58:05;;;;;;;34.80;11.52;;;;;;;24.04;100.00;92922.47;5011633;28;20040;-81
2023/08/24 06:00:31;;;;;;;24.42;12.25;;;;;;;24.21;100.00;92921.19;5012154;28;20045;-81
2023/08/24 06:02:56;;;;;;;25.35;12.15;;;;;;;24.35;100.00;92925.19;5010744;28;20038;-81
2023/08/24 06:05:22;;;;;;;19.52;12.13;;;;;;;24.53;100.00;92931.59;5011748;28;20042;-80
2023/08/24 06:07:48;;;;;;;25.23;12.48;;;;;;;24.72;100.00;92928.78;5040540;28;20037;-80
2023/08/24 06:10:14;;;;;;;19.63;10.90;;;;;;;24.93;100.00;92928.25;5031674;28;20132;-80
2023/08/24 06:12:39;;;;;;;18.45;11.20;;;;;;;25.13;100.00;92925.41;5048430;28;20029;-80
2023/08/24 06:15:09;;;;;;;22.90;12.25;;;;;;;25.29;100.00;92930.59;5027845;28;20550;-80
2023/08/24 06:17:35;;;;;;;24.25;10.27;;;;;;;25.52;100.00;92936.53;5028301;28;20085;-81
2023/08/24 06:20:03;;;;;;;20.08;8.93;;;;;;;25.68;99.33;92922.13;5028613;28;20030;-80
2023/08/24 06:22:29;;;;;;;25.55;10.18;;;;;;;26.12;93.22;92943.56;5028471;28;20033;-80
2023/08/24 06:24:59;;;;;;;25.55;9.85;;;;;;;26.85;90.83;92939.41;5027316;28;20053;-80
2023/08/24 06:27:26;;;;;;;20.60;9.95;;;;;;;27.48;86.43;92940.00;5028037;28;20057;-82
2023/08/24 06:29:52;;;;;;;23.50;10.57;;;;;;;28.10;87.19;92941.59;5000331;28;20030;-81
2023/08/24 06:32:18;;;;;;;29.40;10.40;;;;;;;28.69;88.60;92939.22;5016222;28;20531;-80
2023/08/24 06:34:44;;;;;;;25.15;10.55;;;;;;;29.23;83.76;92945.22;5017424;28;20462;-82
2023/08/24 06:37:10;;;;;;;22.30;9.15;;;;;;;29.77;78.80;92952.25;5035470;28;20029;-82
2023/08/24 06:39:35;;;;;;;19.90;8.70;;;;;;;30.21;68.54;92954.19;5034372;28;20022;-82
2023/08/24 06:42:03;;;;;;;26.98;8.57;;;;;;;30.26;65.69;92953.00;5033928;28;20052;-82
2023/08/24 06:44:30;;;;;;;29.83;9.07;;;;;;;30.48;63.70;92959.00;5033915;28;20060;-82
2023/08/24 06:46:56;;;;;;;28.30;8.85;;;;;;;30.59;61.67;92945.41;5035224;28;20034;-85
2023/08/24 06:49:22;;;;;;;28.10;8.40;;;;;;;30.77;62.97;92948.69;5015036;28;20030;-82
2023/08/24 06:51:47;;;;;;;22.10;7.40;;;;;;;30.94;60.28;92949.69;5016604;28;20045;-83
2023/08/24 06:54:14;;;;;;;24.40;7.72;;;;;;;30.78;58.33;92947.53;5035056;28;20095;-82
2023/08/24 06:56:40;;;;;;;19.98;8.10;;;;;;;30.80;60.92;92952.50;5018080;28;20039;-82
2023/08/24 06:59:05;;;;;;;27.60;8.05;;;;;;;30.64;59.06;92956.53;5036240;28;20026;-82
2023/08/24 07:01:31;;;;;;;22.30;8.35;;;;;;;30.26;60.77;92959.19;5036234;28;20041;-81
2023/08/24 07:03:57;;;;;;;28.65;8.32;;;;;;;30.24;64.23;92949.94;5036506;28;20021;-81
2023/08/24 07:06:23;;;;;;;31.15;7.85;;;;;;;30.22;61.09;92961.16;5035388;28;20029;-82
2023/08/24 07:08:49;;;;;;;24.10;7.65;;;;;;;30.08;64.44;92950.44;5035867;28;20025;-82
2023/08/24 07:11:17;;;;;;;36.95;8.00;;;;;;;29.86;61.84;92947.19;5027689;28;20057;-81
2023/08/24 07:13:44;;;;;;;29.23;9.00;;;;;;;29.79;63.29;92939.13;5035786;28;20055;-81
2023/08/24 07:16:10;;;;;;;19.05;8.18;;;;;;;29.75;62.95;92939.16;5036339;28;20490;-82
2023/08/24 07:18:35;;;;;;;30.73;8.35;;;;;;;29.54;62.33;92936.56;5018224;28;20045;-82
2023/08/24 07:21:01;;;;;;;33.65;7.97;;;;;;;29.54;65.66;92945.41;5035940;28;20060;-82
2023/08/24 07:23:27;;;;;;;29.08;8.50;;;;;;;29.73;61.56;92943.41;5036484;28;20527;-82
2023/08/24 07:25:52;;;;;;;25.00;8.77;;;;;;;29.60;65.35;92941.13;5034979;28;20040;-82
2023/08/24 07:28:18;;;;;;;23.35;7.75;;;;;;;29.71;66.83;92930.31;5017395;28;20068;-80
2023/08/24 07:30:43;;;;;;;28.58;8.27;;;;;;;29.68;67.21;92936.50;5034087;28;20037;-82
2023/08/24 07:33:09;;;;;;;21.10;7.88;;;;;;;29.44;65.28;92935.47;5016607;28;20025;-82
2023/08/24 07:35:35;;;;;;;27.33;8.68;;;;;;;29.51;65.77;92926.56;5039136;28;20085;-82
2023/08/24 07:38:01;;;;;;;27.38;8.50;;;;;;;29.57;65.81;92933.84;5015280;28;20048;-82
2023/08/24 07:40:26;;;;;;;30.20;8.50;;;;;;;29.77;65.40;92939.53;5017996;28;20030;-83
2023/08/24 07:42:55;;;;;;;21.45;8.48;;;;;;;29.77;62.70;92938.75;5020512;28;20033;-81
2023/08/24 07:45:21;;;;;;;21.55;8.07;;;;;;;29.86;62.82;92942.53;5035447;28;20443;-82
2023/08/24 07:47:46;;;;;;;25.13;8.38;;;;;;;29.90;65.40;92937.09;5036192;28;20038;-81
2023/08/24 07:50:12;;;;;;;32.25;7.93;;;;;;;29.86;63.70;92936.38;5001727;28;20037;-79
2023/08/24 07:52:38;;;;;;;24.60;7.30;;;;;;;29.88;62.60;92936.75;5018698;28;20139;-80
2023/08/24 07:55:06;;;;;;;33.67;8.15;;;;;;;29.89;65.89;92927.47;5017783;28;20103;-80
2023/08/24 07:57:33;;;;;;;34.15;8.32;;;;;;;29.78;62.11;92932.19;5020158;28;20032;-80
2023/08/24 07:59:59;;;;;;;25.02;7.78;;;;;;;29.71;62.75;92934.94;5036102;28;20112;-84
2023/08/24 08:02:25;;;;;;;27.08;8.50;;;;;;;29.74;61.36;92931.44;5004339;28;20057;-85
2023/08/24 08:04:51;;;;;;;36.47;8.23;;;;;;;29.78;62.07;92934.88;5041875;28;20041;-83
2023/08/24 08:07:16;;;;;;;26.13;7.95;;;;;;;29.96;58.04;92940.91;5037517;28;20112;-80
2023/08/24 08:09:42;;;;;;;23.73;8.70;;;;;;;29.84;60.69;92933.31;5028259;28;20087;-81
2023/08/24 08:12:08;;;;;;;25.75;7.80;;;;;;;29.78;61.93;92943.00;5036585;28;20049;-81
2023/08/24 08:14:33;;;;;;;26.70;9.45;;;;;;;29.78;61.46;92930.25;5019057;28;20037;-80
2023/08/24 08:16:59;;;;;;;32.35;8.43;;;;;;;29.89;59.73;92935.59;5036220;28;20041;-80
2023/08/24 08:19:28;;;;;;;31.30;8.68;;;;;;;29.74;57.92;92939.53;5016579;28;20451;-79
2023/08/24 08:21:53;;;;;;;32.88;9.50;;;;;;;29.70;60.83;92933.41;5035500;28;20037;-80
2023/08/24 08:24:19;;;;;;;36.55;9.48;;;;;;;29.78;62.35;92929.50;5036302;28;20045;-81
2023/08/24 08:26:44;;;;;;;27.23;8.55;;;;;;;29.76;63.51;92931.81;5036999;28;20039;-81
2023/08/24 08:29:10;;;;;;;26.00;8.52;;;;;;;29.72;63.92;92925.69;5036860;28;20033;-81
2023/08/24 08:31:35;;;;;;;28.48;8.38;;;;;;;29.80;60.15;92936.03;5001726;28;20029;-80
2023/08/24 08:34:04;;;;;;;22.25;8.55;;;;;;;29.74;60.10;92934.91;5017388;28;20037;-79
2023/08/24 08:36:32;;;;;;;20.40;9.18;;;;;;;29.76;58.58;92926.44;5031008;28;20040;-81
2023/08/24 08:38:58;;;;;;;28.23;9.02;;;;;;;29.81;58.92;92934.09;5037189;28;20038;-79
2023/08/24 08:41:28;;;;;;;25.70;9.50;;;;;;;30.04;56.35;92936.25;5036653;28;20065;-78
2023/08/24 08:43:55;;;;;;;27.10;8.88;;;;;;;29.94;59.12;92935.16;5037572;28;20459;-81
2023/08/24 08:46:21;;;;;;;23.63;8.15;;;;;;;29.94;57.39;92937.84;5020223;28;20142;-80
2023/08/24 08:48:50;;;;;;;28.90;9.30;;;;;;;29.97;57.15;92944.38;5034978;28;20116;-79
2023/08/24 08:51:17;;;;;;;27.50;8.95;;;;;;;30.08;58.41;92943.16;5035907;28;20422;-81
2023/08/24 08:53:43;;;;;;;24.10;8.63;;;;;;;30.26;60.58;92936.81;5034736;28;20045;-81
2023/08/24 08:56:08;;;;;;;18.75;8.65;;;;;;;30.05;59.64;92938.53;5035743;28;20107;-81
2023/08/24 08:58:36;;;;;;;25.80;8.35;;;;;;;30.29;60.31;92936.06;5017566;28;20037;-79
2023/08/24 09:01:05;;;;;;;25.38;9.05;;;;;;;30.18;59.44;92933.41;5035048;28;20114;-81
2023/08/24 09:03:32;;;;;;;29.25;8.45;;;;;;;30.07;62.45;92936.19;4998608;28;20496;-79
2023/08/24 09:05:57;;;;;;;25.38;8.60;;;;;;;29.99;61.39;92933.94;5035737;28;20501;-80
2023/08/24 09:08:26;;;;;;;27.25;9.40;;;;;;;30.16;62.46;92934.97;5016331;28;20041;-80
2023/08/24 09:10:51;;;;;;;24.38;9.65;;;;;;;30.06;62.62;92934.69;5016889;28;20021;-78
2023/08/24 09:13:17;;;;;;;28.90;9.75;;;;;;;30.16;61.13;92932.28;5034123;28;20052;-80
2023/08/24 09:15:43;;;;;;;30.42;10.43;;;;;;;30.22;61.62;92928.00;5013246;28;20069;-79
2023/08/24 09:18:09;;;;;;;27.85;9.95;;;;;;;30.15;59.79;92931.53;5026468;28;20042;-80
2023/08/24 09:20:34;;;;;;;34.22;10.38;;;;;;;30.11;62.36;92921.94;5012428;28;20037;-80
2023/08/24 09:23:00;;;;;;;27.70;9.60;;;;;;;30.12;61.47;92918.03;5014755;28;20034;-80
2023/08/24 09:25:26;;;;;;;26.27;9.68;;;;;;;30.27;62.22;92914.09;5014609;28;20042;-79
2023/08/24 09:27:59;;;;;;;30.05;10.80;;;;;;;30.36;61.48;92916.31;5015630;28;20034;-81
2023/08/24 09:30:32;;;;;;;30.58;10.02;;;;;;;30.55;61.71;92914.97;5012894;28;20030;-81
2023/08/24 09:33:02;;;;;;;35.08;9.95;;;;;;;30.49;60.25;92912.72;5014089;28;20038;-79
2023/08/24 09:35:28;;;;;;;19.23;9.23;;;;;;;30.36;60.51;92919.78;5015253;28;20106;-80
2023/08/24 09:37:54;;;;;;;24.35;9.80;;;;;;;30.44;62.33;92905.06;5014637;28;20037;-80
2023/08/24 09:40:25;;;;;;;28.23;10.48;;;;;;;30.37;60.42;92901.63;5029198;28;20038;-80
2023/08/24 09:42:50;;;;;;;23.70;10.63;;;;;;;30.29;60.17;92909.81;5014837;28;20045;-81
2023/08/24 09:45:16;;;;;;;23.27;10.60;;;;;;;30.43;61.34;92903.50;5013783;28;20484;-79
2023/08/24 09:47:52;;;;;;;28.40;9.57;;;;;;;30.30;60.57;92905.94;5014300;28;20050;-80
2023/08/24 09:50:18;;;;;;;23.60;11.23;;;;;;;30.43;60.58;92906.19;5006124;28;20659;-79
2023/08/24 09:52:47;;;;;;;30.23;12.00;;;;;;;30.25;60.85;92908.28;5015696;28;20065;-79
2023/08/24 09:55:17;;;;;;;26.13;10.85;;;;;;;30.32;63.10;92897.44;5014563;28;20104;-79
2023/08/24 09:57:45;;;;;;;20.70;10.90;;;;;;;30.45;63.02;92895.00;5015379;28;20033;-80
2023/08/24 10:00:14;;;;;;;23.58;9.88;;;;;;;30.48;62.21;92886.09;5013994;28;20037;-80
2023/08/24 10:02:50;;;;;;;28.85;11.02;;;;;;;30.59;63.95;92897.53;5013440;28;20184;-79
2023/08/24 10:05:25;;;;;;;22.17;12.38;;;;;;;30.65;62.02;92893.25;5015256;28;20048;-80
2023/08/24 10:07:54;;;;;;;24.23;11.95;;;;;;;30.86;62.65;92886.09;4997884;28;20030;-81
2023/08/24 10:10:21;;;;;;;25.10;11.82;;;;;;;30.55;62.74;92887.94;5014718;28;20017;-79
2023/08/24 10:12:51;;;;;;;19.40;11.23;;;;;;;30.63;63.58;92892.88;5004530;28;20038;-79
2023/08/24 10:15:18;;;;;;;24.10;11.50;;;;;;;30.80;64.04;92876.84;5014061;28;20038;-79
2023/08/24 10:17:44;;;;;;;24.55;11.88;;;;;;;30.70;63.51;92881.97;5014745;28;20030;-81
2023/08/24 10:20:11;;;;;;;30.52;12.30;;;;;;;30.86;63.72;92870.63;5013673;28;20516;-79
2023/08/24 10:22:40;;;;;;;19.35;11.77;;;;;;;30.68;65.10;92872.75;5015823;28;20064;-81
2023/08/24 10:25:08;;;;;;;21.08;11.75;;;;;;;30.70;64.94;92865.00;5016810;28;20057;-79
2023/08/24 10:27:36;;;;;;;26.17;12.00;;;;;;;30.97;65.29;92869.75;5009077;28;20038;-79
2023/08/24 10:30:02;;;;;;;22.38;11.75;;;;;;;30.93;62.71;92869.78;5009773;28;20519;-81
2023/08/24 10:32:28;;;;;;;20.85;11.73;;;;;;;30.55;63.28;92871.75;5009875;28;20042;-79
2023/08/24 10:34:54;;;;;;;21.05;12.02;;;;;;;30.67;64.08;92868.53;5013554;28;20504;-80
2023/08/24 10:37:27;;;;;;;27.77;12.65;;;;;;;30.58;65.58;92860.13;4996123;28;20125;-80
2023/08/24 10:39:53;;;;;;;18.40;12.05;;;;;;;30.68;66.60;92859.25;5013819;28;20072;-80
2023/08/24 10:42:20;;;;;;;25.92;12.30;;;;;;;30.90;63.74;92865.94;5014237;28;20034;-80
2023/08/24 10:44:47;;;;;;;24.77;11.82;;;;;;;30.93;63.59;92858.97;5014485;28;20037;-80
2023/08/24 10:47:22;;;;;;;24.83;12.88;;;;;;;30.61;62.89;92853.94;5014604;28;20033;-80
2023/08/24 10:49:57;;;;;;;31.88;12.65;;;;;;;30.88;67.23;92852.06;5014015;28;20053;-80
2023/08/24 10:52:36;;;;;;;23.95;12.32;;;;;;;31.19;64.32;92846.66;4994283;28;20488;-81
2023/08/24 10:55:04;;;;;;;26.80;11.95;;;;;;;31.31;62.17;92848.78;4989892;28;20539;-81
2023/08/24 10:57:43;;;;;;;19.65;12.23;;;;;;;31.29;60.95;92853.84;5013993;28;20100;-81
2023/08/24 11:00:13;;;;;;;19.88;11.63;;;;;;;31.17;61.86;92846.28;5014327;28;20030;-81
2023/08/24 11:02:45;;;;;;;23.73;11.90;;;;;;;31.20;60.70;92842.00;5014196;28;20045;-81
2023/08/24 11:05:30;;;;;;;28.17;12.20;;;;;;;31.29;62.14;92848.44;5013581;28;20030;-81
2023/08/24 11:07:57;;;;;;;23.83;12.30;;;;;;;31.39;60.08;92833.22;5011896;28;20097;-81
2023/08/24 11:10:25;;;;;;;22.83;11.57;;;;;;;31.40;59.04;92840.16;4996424;28;20033;-81
2023/08/24 11:13:14;;;;;;;21.77;11.70;;;;;;;31.36;61.50;92836.75;5012859;28;20069;-81
2023/08/24 11:15:44;;;;;;;19.70;11.98;;;;;;;31.41;61.55;92843.63;5013797;28;20460;-81
2023/08/24 11:18:22;;;;;;;19.57;11.33;;;;;;;31.23;62.13;92828.44;5018127;28;20081;-81
2023/08/24 11:20:50;;;;;;;24.35;12.68;;;;;;;31.13;60.46;92832.06;5015303;28;20041;-80
2023/08/24 11:23:17;;;;;;;21.95;12.23;;;;;;;31.21;59.60;92827.31;4983809;28;20517;-81